createdAt,value
2023-05-15T00:01:32.465Z,13.91
2023-05-15T00:03:59.389Z,13.89
2023-05-15T00:06:27.990Z,13.90
2023-05-15T00:08:54.764Z,13.87
2023-05-15T00:11:23.494Z,13.80
2023-05-15T00:13:51.268Z,13.77
2023-05-15T00:16:18.205Z,13.43
2023-05-15T00:18:45.127Z,13.69
2023-05-15T00:21:12.045Z,13.67
2023-05-15T00:23:38.851Z,13.66
2023-05-15T00:26:05.810Z,13.67
2023-05-15T00:28:32.650Z,13.64
2023-05-15T00:30:59.534Z,13.57
2023-05-15T00:33:26.302Z,13.63
2023-05-15T00:35:53.093Z,13.63
2023-05-15T00:38:19.869Z,13.59
2023-05-15T00:40:47.059Z,13.53
2023-05-15T00:43:15.181Z,13.57
2023-05-15T00:45:43.510Z,13.54
2023-05-15T00:48:10.604Z,13.51
2023-05-15T00:50:38.517Z,13.53
2023-05-15T00:53:06.171Z,13.49
2023-05-15T00:55:34.166Z,13.44
2023-05-15T00:58:02.279Z,13.40
2023-05-15T01:00:31.474Z,13.46
2023-05-15T01:02:58.426Z,13.47
2023-05-15T01:05:25.942Z,13.46
2023-05-15T01:08:17.108Z,13.48
2023-05-15T01:10:45.730Z,13.48
2023-05-15T01:13:15.262Z,13.45
2023-05-15T01:15:42.927Z,13.48
2023-05-15T01:18:09.786Z,13.48
2023-05-15T01:21:16.464Z,13.49
2023-05-15T01:24:19.608Z,13.45
2023-05-15T01:27:10.359Z,13.44
2023-05-15T01:33:51.290Z,13.26
2023-05-15T01:36:33.337Z,13.28
2023-05-15T01:39:03.348Z,13.26
2023-05-15T01:41:42.953Z,13.30
2023-05-15T01:44:22.751Z,13.34
2023-05-15T01:46:59.658Z,13.32
2023-05-15T01:49:32.068Z,13.34
2023-05-15T01:52:35.777Z,13.33
2023-05-15T01:55:04.779Z,13.33
2023-05-15T01:57:32.238Z,13.33
2023-05-15T02:00:00.617Z,13.31
2023-05-15T02:02:29.541Z,13.32
2023-05-15T02:04:57.392Z,13.35
2023-05-15T02:07:25.016Z,13.39
2023-05-15T02:09:52.858Z,13.37
2023-05-15T02:12:21.062Z,13.38
2023-05-15T02:14:50.451Z,13.37
2023-05-15T02:17:17.844Z,13.36
2023-05-15T02:19:44.693Z,13.39
2023-05-15T02:22:11.475Z,13.36
2023-05-15T02:24:38.247Z,13.37
2023-05-15T02:27:21.077Z,13.34
2023-05-15T02:30:14.975Z,13.37
2023-05-15T02:32:54.831Z,13.34
2023-05-15T02:35:42.647Z,13.39
2023-05-15T02:38:16.939Z,13.36
2023-05-15T02:40:46.077Z,13.31
2023-05-15T02:43:14.118Z,13.34
2023-05-15T02:45:42.057Z,13.36
2023-05-15T02:48:09.628Z,13.38
2023-05-15T02:50:36.458Z,13.35
2023-05-15T02:53:05.406Z,13.28
2023-05-15T02:55:32.281Z,13.30
2023-05-15T02:57:59.396Z,13.34
2023-05-15T03:00:26.251Z,13.19
2023-05-15T03:02:53.328Z,13.30
2023-05-15T03:05:20.851Z,13.30
2023-05-15T03:07:47.609Z,13.31
2023-05-15T03:10:14.516Z,13.36
2023-05-15T03:12:41.302Z,13.33
2023-05-15T03:15:08.470Z,13.32
2023-05-15T03:17:35.533Z,13.30
2023-05-15T03:20:02.607Z,13.29
2023-05-15T03:22:29.378Z,13.32
2023-05-15T03:24:56.131Z,13.26
2023-05-15T03:27:23.073Z,13.30
2023-05-15T03:29:50.924Z,13.32
2023-05-15T03:32:18.048Z,13.16
2023-05-15T03:34:44.922Z,13.26
2023-05-15T03:37:11.718Z,13.27
2023-05-15T03:39:38.520Z,13.24
2023-05-15T03:42:05.589Z,13.24
2023-05-15T03:44:33.124Z,13.26
2023-05-15T03:46:59.945Z,13.24
2023-05-15T03:49:26.779Z,13.20
2023-05-15T03:51:53.585Z,13.15
2023-05-15T03:54:20.515Z,13.26
2023-05-15T03:56:47.321Z,13.27
2023-05-15T03:59:14.135Z,13.23
2023-05-15T04:01:51.258Z,13.28
2023-05-15T04:04:22.480Z,13.27
2023-05-15T04:06:50.509Z,13.19
2023-05-15T04:09:17.575Z,13.04
2023-05-15T04:11:46.626Z,13.18
2023-05-15T04:14:13.923Z,13.18
2023-05-15T04:16:40.754Z,13.02
2023-05-15T04:19:07.792Z,13.11
2023-05-15T04:21:34.550Z,13.06
2023-05-15T04:24:01.308Z,13.04
2023-05-15T04:26:28.286Z,13.12
2023-05-15T04:31:29.975Z,13.11
2023-05-15T04:33:56.859Z,13.13
2023-05-15T04:36:23.660Z,13.13
2023-05-15T04:38:50.510Z,13.04
2023-05-15T04:41:17.820Z,13.18
2023-05-15T04:43:44.615Z,13.19
2023-05-15T04:46:11.486Z,13.18
2023-05-15T04:48:38.520Z,13.21
2023-05-15T04:51:05.400Z,13.24
2023-05-15T04:53:32.243Z,13.25
2023-05-15T04:55:59.031Z,13.26
2023-05-15T04:58:25.967Z,13.29
2023-05-15T05:00:52.971Z,13.29
2023-05-15T05:03:19.935Z,13.27
2023-05-15T05:05:46.754Z,13.29
2023-05-15T05:08:13.761Z,13.32
2023-05-15T05:10:40.606Z,13.36
2023-05-15T05:13:07.512Z,13.28
2023-05-15T05:15:34.390Z,13.36
2023-05-15T05:18:01.370Z,13.39
2023-05-15T05:20:28.251Z,13.39
2023-05-15T05:22:55.086Z,13.40
2023-05-15T05:25:22.037Z,13.40
2023-05-15T05:27:48.963Z,13.39
2023-05-15T05:30:15.940Z,13.40
2023-05-15T05:32:42.918Z,13.36
2023-05-15T05:35:10.923Z,13.46
2023-05-15T05:37:39.604Z,13.46
2023-05-15T05:40:10.280Z,13.49
2023-05-15T05:42:37.788Z,13.47
2023-05-15T05:45:06.696Z,13.54
2023-05-15T05:47:34.553Z,13.55
2023-05-15T05:50:01.609Z,13.55
2023-05-15T05:52:29.384Z,13.47
2023-05-15T05:54:56.314Z,13.58
2023-05-15T05:57:23.156Z,13.62
2023-05-15T05:59:50.060Z,13.57
2023-05-15T06:02:18.015Z,13.65
2023-05-15T06:04:46.469Z,13.71
2023-05-15T06:07:14.597Z,13.67
2023-05-15T06:09:41.663Z,13.66
2023-05-15T06:12:09.176Z,13.65
2023-05-15T06:14:36.153Z,13.75
2023-05-15T06:17:03.421Z,13.75
2023-05-15T06:19:30.479Z,13.75
2023-05-15T06:21:57.750Z,13.77
2023-05-15T06:24:25.812Z,13.78
2023-05-15T06:26:53.276Z,13.73
2023-05-15T06:29:21.336Z,13.80
2023-05-15T06:31:49.439Z,13.82
2023-05-15T06:34:16.468Z,13.76
2023-05-15T06:36:43.318Z,13.88
2023-05-15T06:39:13.333Z,13.88
2023-05-15T06:41:40.152Z,13.89
2023-05-15T06:44:07.039Z,13.91
2023-05-15T06:46:33.940Z,13.93
2023-05-15T06:49:00.914Z,13.92
2023-05-15T06:51:27.799Z,13.92
2023-05-15T06:53:54.694Z,13.94
2023-05-15T06:56:21.976Z,13.95
2023-05-15T06:58:48.843Z,13.93
2023-05-15T07:01:15.801Z,13.99
2023-05-15T07:03:43.062Z,14.07
2023-05-15T07:06:09.967Z,14.03
2023-05-15T07:08:36.826Z,14.21
2023-05-15T07:11:04.342Z,14.17
2023-05-15T07:13:31.478Z,14.15
2023-05-15T07:15:58.529Z,14.17
2023-05-15T07:18:25.432Z,14.17
2023-05-15T07:20:52.338Z,14.20
2023-05-15T07:23:19.223Z,14.20
2023-05-15T07:25:47.509Z,14.14
2023-05-15T07:28:14.423Z,14.26
2023-05-15T07:30:41.960Z,14.31
2023-05-15T07:33:08.908Z,14.18
2023-05-15T07:35:35.715Z,14.31
2023-05-15T07:38:02.629Z,14.33
2023-05-15T07:40:30.176Z,14.43
2023-05-15T07:42:57.068Z,14.60
2023-05-15T07:45:24.239Z,14.73
2023-05-15T07:47:51.602Z,14.68
2023-05-15T07:50:18.788Z,14.62
2023-05-15T07:52:47.117Z,14.63
2023-05-15T07:55:14.097Z,14.62
2023-05-15T07:57:40.962Z,14.76
2023-05-15T08:00:13.373Z,15.05
2023-05-15T08:02:40.804Z,15.28
2023-05-15T08:05:08.359Z,15.34
2023-05-15T08:07:35.226Z,15.18
2023-05-15T08:10:04.180Z,15.22
2023-05-15T08:12:31.013Z,15.23
2023-05-15T08:14:57.851Z,15.16
2023-05-15T08:17:25.938Z,15.40
2023-05-15T08:19:53.415Z,15.41
2023-05-15T08:22:20.273Z,15.22
2023-05-15T08:24:47.159Z,15.22
2023-05-15T08:27:14.023Z,15.29
2023-05-15T08:29:41.020Z,15.30
2023-05-15T08:32:10.040Z,15.32
2023-05-15T08:34:37.024Z,15.30
2023-05-15T08:37:06.830Z,15.24
2023-05-15T08:39:33.801Z,15.35
2023-05-15T08:42:09.282Z,15.40
2023-05-15T08:44:36.900Z,15.23
2023-05-15T08:47:06.112Z,15.40
2023-05-15T08:49:56.944Z,15.41
2023-05-15T08:52:25.741Z,15.52
2023-05-15T08:54:53.639Z,15.43
2023-05-15T08:57:21.061Z,15.54
2023-05-15T08:59:49.685Z,15.60
2023-05-15T09:02:17.218Z,15.47
2023-05-15T09:04:44.724Z,15.67
2023-05-15T09:07:12.670Z,15.66
2023-05-15T09:09:40.052Z,15.70
2023-05-15T09:12:15.098Z,15.62
2023-05-15T09:14:44.653Z,15.75
2023-05-15T09:17:13.144Z,15.80
2023-05-15T09:19:40.461Z,15.80
2023-05-15T09:22:25.705Z,15.89
2023-05-15T09:24:53.274Z,16.00
2023-05-15T09:27:20.927Z,16.02
2023-05-15T09:29:48.918Z,16.02
2023-05-15T09:32:18.259Z,16.03
2023-05-15T09:34:46.050Z,16.08
2023-05-15T09:37:31.762Z,16.01
2023-05-15T09:40:10.017Z,16.07
2023-05-15T09:42:37.566Z,16.09
2023-05-15T09:45:05.321Z,16.17
2023-05-15T09:47:32.640Z,16.19
2023-05-15T09:49:59.761Z,16.14
2023-05-15T09:52:29.073Z,16.24
2023-05-15T09:54:57.279Z,16.31
2023-05-15T09:57:24.789Z,16.30
2023-05-15T09:59:51.667Z,16.35
2023-05-15T10:02:34.913Z,16.40
2023-05-15T10:05:02.321Z,16.43
2023-05-15T10:07:35.073Z,16.47
2023-05-15T10:10:04.261Z,16.52
2023-05-15T10:12:32.259Z,16.52
2023-05-15T10:15:01.607Z,16.47
2023-05-15T10:17:31.929Z,16.66
2023-05-15T10:20:00.861Z,16.66
2023-05-15T10:22:30.954Z,16.76
2023-05-15T10:25:05.580Z,16.81
2023-05-15T10:27:36.000Z,16.79
2023-05-15T10:30:04.178Z,16.76
2023-05-15T10:32:31.727Z,16.78
2023-05-15T10:34:58.828Z,16.81
2023-05-15T10:37:27.620Z,16.80
2023-05-15T10:39:58.462Z,16.88
2023-05-15T10:42:27.731Z,16.88
2023-05-15T10:45:00.091Z,16.96
2023-05-15T10:47:28.277Z,17.00
2023-05-15T10:49:55.354Z,17.04
2023-05-15T10:52:22.644Z,17.09
2023-05-15T10:54:49.569Z,17.20
2023-05-15T10:57:18.262Z,17.17
2023-05-15T10:59:45.198Z,17.18
2023-05-15T11:02:26.397Z,17.34
2023-05-15T11:05:02.051Z,17.38
2023-05-15T11:07:29.339Z,17.38
2023-05-15T11:09:57.148Z,17.37
2023-05-15T11:12:25.659Z,17.63
2023-05-15T11:14:56.284Z,17.67
2023-05-15T11:17:26.621Z,17.69
2023-05-15T11:19:53.357Z,17.67
2023-05-15T11:22:36.139Z,17.63
2023-05-15T11:25:14.389Z,17.70
2023-05-15T11:27:46.365Z,17.77
2023-05-15T11:30:22.239Z,17.74
2023-05-15T11:33:02.005Z,17.78
2023-05-15T11:35:40.045Z,17.72
2023-05-15T11:38:09.828Z,17.96
2023-05-15T11:40:52.594Z,18.23
2023-05-15T11:43:24.803Z,18.49
2023-05-15T11:45:58.625Z,18.79
2023-05-15T11:48:32.910Z,19.32
2023-05-15T11:51:02.104Z,19.69
2023-05-15T11:53:33.145Z,20.49
2023-05-15T11:56:00.124Z,20.51
2023-05-15T11:58:27.455Z,20.82
2023-05-15T12:00:54.894Z,20.53
2023-05-15T12:03:36.124Z,20.76
2023-05-15T12:06:05.364Z,20.36
2023-05-15T12:08:37.685Z,20.14
2023-05-15T12:11:06.416Z,20.27
2023-05-15T12:13:34.344Z,20.19
2023-05-15T12:16:03.496Z,20.13
2023-05-15T12:18:33.977Z,19.83
2023-05-15T12:21:01.170Z,19.81
2023-05-15T12:23:29.851Z,19.80
2023-05-15T12:26:01.375Z,20.09
2023-05-15T12:28:30.252Z,20.06
2023-05-15T12:30:57.993Z,19.60
2023-05-15T12:33:25.369Z,19.81
2023-05-15T12:36:00.270Z,19.86
2023-05-15T12:38:28.042Z,19.59
2023-05-15T12:40:55.242Z,19.42
2023-05-15T12:43:25.360Z,19.27
2023-05-15T12:45:56.443Z,19.19
2023-05-15T12:48:28.807Z,19.21
2023-05-15T12:50:55.625Z,19.00
2023-05-15T12:53:22.509Z,18.69
2023-05-15T12:55:50.929Z,18.83
2023-05-15T12:58:19.055Z,19.02
2023-05-15T13:00:50.224Z,18.71
2023-05-15T13:03:23.475Z,18.92
2023-05-15T13:05:52.176Z,19.01
2023-05-15T13:08:19.726Z,18.91
2023-05-15T13:10:47.796Z,18.89
2023-05-15T13:13:15.458Z,18.80
2023-05-15T13:15:47.988Z,18.60
2023-05-15T13:18:17.932Z,18.65
2023-05-15T13:20:46.409Z,18.76
2023-05-15T13:23:20.451Z,18.70
2023-05-15T13:25:47.685Z,18.66
2023-05-15T13:28:14.464Z,18.77
2023-05-15T13:30:42.243Z,18.59
2023-05-15T13:33:13.183Z,18.45
2023-05-15T13:35:42.900Z,18.36
2023-05-15T13:38:11.752Z,18.40
2023-05-15T13:40:39.558Z,18.50
2023-05-15T13:43:06.617Z,18.52
2023-05-15T13:45:33.841Z,18.44
2023-05-15T13:48:00.848Z,18.53
2023-05-15T13:50:27.816Z,18.55
2023-05-15T13:52:54.738Z,18.54
2023-05-15T13:55:23.187Z,18.78
2023-05-15T13:57:51.216Z,18.92
2023-05-15T14:00:18.704Z,18.83
2023-05-15T14:02:45.888Z,18.93
2023-05-15T14:05:14.627Z,18.85
2023-05-15T14:07:42.010Z,18.82
2023-05-15T14:10:10.350Z,18.78
2023-05-15T14:12:38.123Z,18.87
2023-05-15T14:15:05.816Z,18.78
2023-05-15T14:17:32.721Z,18.61
2023-05-15T14:19:59.585Z,18.71
2023-05-15T14:22:26.447Z,18.75
2023-05-15T14:24:53.581Z,18.77
2023-05-15T14:27:20.755Z,18.72
2023-05-15T14:29:48.935Z,18.85
2023-05-15T14:32:16.424Z,18.96
2023-05-15T14:34:43.654Z,18.85
2023-05-15T14:37:10.595Z,18.64
2023-05-15T14:39:37.561Z,18.76
2023-05-15T14:42:04.737Z,18.72
2023-05-15T14:44:31.618Z,18.74
2023-05-15T14:47:12.629Z,18.72
2023-05-15T14:49:40.178Z,18.62
2023-05-15T14:52:09.341Z,18.67
2023-05-15T14:54:36.904Z,18.60
2023-05-15T14:57:04.031Z,18.65
2023-05-15T14:59:30.972Z,18.69
2023-05-15T15:01:58.008Z,18.69
2023-05-15T15:04:26.611Z,18.80
2023-05-15T15:06:56.791Z,18.59
2023-05-15T15:09:25.232Z,18.82
2023-05-15T15:11:52.647Z,18.79
2023-05-15T15:14:19.481Z,18.78
2023-05-15T15:16:46.525Z,18.82
2023-05-15T15:19:16.166Z,18.77
2023-05-15T15:21:44.974Z,18.78
2023-05-15T15:24:11.926Z,18.84
2023-05-15T15:26:38.739Z,18.88
2023-05-15T15:29:05.708Z,18.82
2023-05-15T15:31:32.530Z,18.88
2023-05-15T15:33:59.585Z,18.98
2023-05-15T15:36:26.633Z,18.93
2023-05-15T15:38:53.541Z,19.01
2023-05-15T15:41:23.496Z,19.00
2023-05-15T15:43:50.560Z,18.93
2023-05-15T15:46:17.436Z,18.92
2023-05-15T15:48:44.582Z,18.70
2023-05-15T15:51:11.426Z,18.77
2023-05-15T15:53:38.763Z,18.74
2023-05-15T15:56:07.152Z,18.77
2023-05-15T15:58:33.974Z,18.66
2023-05-15T16:01:01.198Z,18.56
2023-05-15T16:03:28.279Z,18.60
2023-05-15T16:05:55.196Z,18.37
2023-05-15T16:08:22.156Z,18.34
2023-05-15T16:10:49.031Z,18.40
2023-05-15T16:13:15.987Z,18.38
2023-05-15T16:15:42.913Z,18.31
2023-05-15T16:18:09.695Z,18.25
2023-05-15T16:20:36.549Z,18.22
2023-05-15T16:23:03.296Z,18.21
2023-05-15T16:25:30.116Z,18.18
2023-05-15T16:27:57.017Z,18.05
2023-05-15T16:30:33.415Z,18.05
2023-05-15T16:33:11.038Z,18.01
2023-05-15T16:35:37.934Z,17.94
2023-05-15T16:38:05.436Z,17.92
2023-05-15T16:40:32.215Z,17.83
2023-05-15T16:42:59.077Z,17.77
2023-05-15T16:45:26.119Z,17.66
2023-05-15T16:47:53.055Z,17.55
2023-05-15T16:50:20.063Z,17.59
2023-05-15T16:52:48.081Z,17.52
2023-05-15T16:55:18.343Z,17.54
2023-05-15T16:57:46.276Z,17.58
2023-05-15T17:00:14.657Z,17.55
2023-05-15T17:02:42.581Z,17.52
2023-05-15T17:05:11.200Z,17.45
2023-05-15T17:07:38.665Z,17.42
2023-05-15T17:10:10.415Z,17.34
2023-05-15T17:12:37.775Z,17.31
2023-05-15T17:15:05.608Z,17.35
2023-05-15T17:17:32.700Z,17.26
2023-05-15T17:20:01.862Z,17.19
2023-05-15T17:22:29.472Z,17.21
2023-05-15T17:24:56.390Z,17.12
2023-05-15T17:27:23.331Z,17.05
2023-05-15T17:29:50.503Z,17.12
2023-05-15T17:32:18.329Z,17.11
2023-05-15T17:34:46.340Z,17.08
2023-05-15T17:37:13.528Z,17.02
2023-05-15T17:39:40.503Z,17.00
2023-05-15T17:42:07.461Z,17.06
2023-05-15T17:44:34.455Z,17.02
2023-05-15T17:47:01.329Z,17.02
2023-05-15T17:49:28.441Z,16.97
2023-05-15T17:51:55.383Z,17.00
2023-05-15T17:54:22.212Z,16.99
2023-05-15T17:56:49.098Z,16.95
2023-05-15T17:59:16.289Z,16.90
2023-05-15T18:01:43.274Z,16.89
2023-05-15T18:04:10.400Z,16.77
2023-05-15T18:06:37.370Z,16.86
2023-05-15T18:09:05.020Z,16.87
2023-05-15T18:11:32.344Z,16.86
2023-05-15T18:13:59.418Z,16.79
2023-05-15T18:16:26.521Z,16.82
2023-05-15T18:18:53.813Z,16.85
2023-05-15T18:21:20.787Z,16.90
2023-05-15T18:23:47.595Z,16.90
2023-05-15T18:26:14.460Z,16.85
2023-05-15T18:28:41.355Z,16.69
2023-05-15T18:31:08.326Z,16.62
2023-05-15T18:33:35.240Z,16.59
2023-05-15T18:36:02.138Z,16.48
2023-05-15T18:38:29.105Z,16.55
2023-05-15T18:40:55.972Z,16.56
2023-05-15T18:43:22.793Z,16.49
2023-05-15T18:45:49.677Z,16.55
2023-05-15T18:48:16.574Z,16.44
2023-05-15T18:50:43.783Z,16.54
2023-05-15T18:53:10.650Z,16.54
2023-05-15T18:55:38.893Z,16.57
2023-05-15T18:58:06.190Z,16.45
2023-05-15T19:00:39.042Z,16.49
2023-05-15T19:03:08.355Z,16.51
2023-05-15T19:05:35.648Z,16.53
2023-05-15T19:08:03.056Z,16.55
2023-05-15T19:10:30.644Z,16.49
2023-05-15T19:12:58.325Z,16.45
2023-05-15T19:15:25.638Z,16.50
2023-05-15T19:17:52.833Z,16.47
2023-05-15T19:20:20.712Z,16.47
2023-05-15T19:22:47.611Z,16.49
2023-05-15T19:25:14.538Z,16.36
2023-05-15T19:27:41.421Z,16.35
2023-05-15T19:30:09.964Z,16.36
2023-05-15T19:32:37.368Z,16.37
2023-05-15T19:35:05.266Z,16.33
2023-05-15T19:37:32.123Z,16.33
2023-05-15T19:39:58.935Z,16.29
2023-05-15T19:42:26.115Z,16.18
2023-05-15T19:44:52.932Z,16.10
2023-05-15T19:47:19.738Z,16.04
2023-05-15T19:49:46.686Z,15.98
2023-05-15T19:52:13.491Z,16.02
2023-05-15T19:54:40.413Z,15.95
2023-05-15T19:57:07.433Z,15.98
2023-05-15T19:59:34.250Z,15.96
2023-05-15T20:02:02.571Z,15.90
2023-05-15T20:04:29.500Z,15.77
2023-05-15T20:06:56.368Z,15.84
2023-05-15T20:09:23.146Z,15.85
2023-05-15T20:11:50.269Z,15.89
2023-05-15T20:14:17.096Z,15.88
2023-05-15T20:16:43.932Z,15.75
2023-05-15T20:19:11.145Z,15.87
2023-05-15T20:21:38.455Z,15.87
2023-05-15T20:24:05.944Z,15.88
2023-05-15T20:26:32.868Z,15.83
2023-05-15T20:28:59.633Z,15.80
2023-05-15T20:31:26.423Z,15.80
2023-05-15T20:33:53.367Z,15.74
2023-05-15T20:36:25.081Z,15.78
2023-05-15T20:38:52.755Z,15.66
2023-05-15T20:41:21.491Z,15.76
2023-05-15T20:43:49.679Z,15.73
2023-05-15T20:46:16.919Z,15.69
2023-05-15T20:48:43.881Z,15.68
2023-05-15T20:51:10.668Z,15.63
2023-05-15T20:53:37.474Z,15.59
2023-05-15T20:56:04.261Z,15.57
2023-05-15T20:58:31.151Z,15.49
2023-05-15T21:01:00.827Z,15.44
2023-05-15T21:03:28.704Z,15.44
2023-05-15T21:05:56.960Z,15.38
2023-05-15T21:08:24.384Z,15.28
2023-05-15T21:10:53.008Z,15.30
2023-05-15T21:13:19.872Z,15.28
2023-05-15T21:15:46.927Z,15.33
2023-05-15T21:18:13.818Z,15.30
2023-05-15T21:20:41.677Z,15.22
2023-05-15T21:23:08.499Z,15.09
2023-05-15T21:25:35.278Z,14.97
2023-05-15T21:28:02.655Z,14.92
2023-05-15T21:30:29.525Z,14.91
2023-05-15T21:32:56.514Z,14.91
2023-05-15T21:35:25.038Z,14.90
2023-05-15T21:37:51.809Z,14.91
2023-05-15T21:40:18.769Z,14.80
2023-05-15T21:42:45.898Z,14.94
2023-05-15T21:45:12.746Z,14.95
2023-05-15T21:47:39.593Z,14.96
2023-05-15T21:50:07.577Z,14.89
2023-05-15T21:52:34.401Z,14.94
2023-05-15T21:55:01.178Z,14.83
2023-05-15T21:57:28.585Z,14.89
2023-05-15T21:59:55.355Z,14.89
2023-05-15T22:02:22.485Z,14.93
2023-05-15T22:04:49.355Z,14.87
2023-05-15T22:07:16.436Z,14.97
2023-05-15T22:09:44.893Z,14.93
2023-05-15T22:12:11.810Z,14.92
2023-05-15T22:14:46.966Z,14.80
2023-05-15T22:17:26.243Z,14.83
2023-05-15T22:19:53.517Z,14.81
2023-05-15T22:22:20.811Z,14.87
2023-05-15T22:24:47.897Z,14.82
2023-05-15T22:27:16.745Z,14.79
2023-05-15T22:29:43.619Z,14.64
2023-05-15T22:32:10.457Z,14.76
2023-05-15T22:34:37.286Z,14.76
2023-05-15T22:37:04.223Z,14.79
2023-05-15T22:39:31.128Z,14.73
2023-05-15T22:41:57.896Z,14.76
2023-05-15T22:44:24.776Z,14.67
2023-05-15T22:46:51.693Z,14.51
2023-05-15T22:49:25.298Z,14.34
2023-05-15T22:51:56.629Z,14.31
2023-05-15T22:54:23.833Z,14.32
2023-05-15T22:56:54.213Z,14.32
2023-05-15T22:59:21.526Z,14.34
2023-05-15T23:01:49.347Z,14.28
2023-05-15T23:04:17.472Z,14.39
2023-05-15T23:06:44.603Z,14.27
2023-05-15T23:09:11.695Z,14.37
2023-05-15T23:11:38.751Z,14.35
2023-05-15T23:14:05.725Z,14.38
2023-05-15T23:16:32.501Z,14.28
2023-05-15T23:18:59.668Z,14.39
2023-05-15T23:21:26.942Z,14.35
2023-05-15T23:23:53.914Z,14.37
2023-05-15T23:26:20.857Z,14.31
2023-05-15T23:28:47.649Z,14.33
2023-05-15T23:31:14.714Z,14.27
2023-05-15T23:33:41.739Z,14.24
2023-05-15T23:36:08.773Z,14.23
2023-05-15T23:38:35.580Z,14.27
2023-05-15T23:41:02.480Z,14.29
2023-05-15T23:43:29.628Z,14.27
2023-05-15T23:45:56.445Z,14.22
2023-05-15T23:48:23.301Z,14.21
2023-05-15T23:50:51.472Z,14.15
2023-05-15T23:53:18.320Z,14.11
2023-05-15T23:55:45.134Z,14.04
2023-05-15T23:58:12.001Z,14.11
